sensor_id;sensor_type;location;lat;lon;timestamp;P1;durP1;ratioP1;P2;durP2;ratioP2
69150;SDS011;56257;52.196;13.870;2023-02-15T00:01:47;4.22;;;2.20;;
69150;SDS011;56257;52.196;13.870;2023-02-15T00:04:15;4.43;;;2.10;;
69150;SDS011;56257;52.196;13.870;2023-02-15T00:06:43;4.50;;;2.05;;
69150;SDS011;56257;52.196;13.870;2023-02-15T00:09:10;4.15;;;1.88;;
69150;SDS011;56257;52.196;13.870;2023-02-15T00:11:38;4.38;;;2.08;;
69150;SDS011;56257;52.196;13.870;2023-02-15T00:14:12;3.92;;;1.70;;
69150;SDS011;56257;52.196;13.870;2023-02-15T00:16:40;3.67;;;1.70;;
69150;SDS011;56257;52.196;13.870;2023-02-15T00:19:08;4.47;;;1.80;;
69150;SDS011;56257;52.196;13.870;2023-02-15T00:21:36;4.80;;;1.83;;
69150;SDS011;56257;52.196;13.870;2023-02-15T00:24:04;4.53;;;1.80;;
69150;SDS011;56257;52.196;13.870;2023-02-15T00:26:32;4.47;;;2.10;;
69150;SDS011;56257;52.196;13.870;2023-02-15T00:28:59;4.50;;;1.80;;
69150;SDS011;56257;52.196;13.870;2023-02-15T00:31:29;4.10;;;2.10;;
69150;SDS011;56257;52.196;13.870;2023-02-15T00:34:04;4.72;;;1.98;;
69150;SDS011;56257;52.196;13.870;2023-02-15T00:36:32;4.20;;;1.90;;
69150;SDS011;56257;52.196;13.870;2023-02-15T00:38:59;4.63;;;2.08;;
69150;SDS011;56257;52.196;13.870;2023-02-15T00:41:26;3.93;;;1.53;;
69150;SDS011;56257;52.196;13.870;2023-02-15T00:43:52;3.60;;;1.40;;
69150;SDS011;56257;52.196;13.870;2023-02-15T00:46:19;4.63;;;2.17;;
69150;SDS011;56257;52.196;13.870;2023-02-15T00:48:46;3.70;;;1.55;;
69150;SDS011;56257;52.196;13.870;2023-02-15T00:51:12;4.13;;;1.90;;
69150;SDS011;56257;52.196;13.870;2023-02-15T00:53:39;3.53;;;1.50;;
69150;SDS011;56257;52.196;13.870;2023-02-15T00:56:05;4.50;;;2.03;;
69150;SDS011;56257;52.196;13.870;2023-02-15T00:58:32;3.50;;;1.50;;
69150;SDS011;56257;52.196;13.870;2023-02-15T01:01:03;4.35;;;1.73;;
69150;SDS011;56257;52.196;13.870;2023-02-15T01:03:31;4.10;;;1.92;;
69150;SDS011;56257;52.196;13.870;2023-02-15T01:05:58;4.00;;;1.67;;
69150;SDS011;56257;52.196;13.870;2023-02-15T01:08:25;3.78;;;1.63;;
69150;SDS011;56257;52.196;13.870;2023-02-15T01:10:52;3.83;;;1.60;;
69150;SDS011;56257;52.196;13.870;2023-02-15T01:13:19;4.10;;;1.70;;
69150;SDS011;56257;52.196;13.870;2023-02-15T01:15:52;3.55;;;1.73;;
69150;SDS011;56257;52.196;13.870;2023-02-15T01:18:20;3.93;;;1.60;;
69150;SDS011;56257;52.196;13.870;2023-02-15T01:20:47;3.45;;;1.60;;
69150;SDS011;56257;52.196;13.870;2023-02-15T01:23:14;3.95;;;1.73;;
69150;SDS011;56257;52.196;13.870;2023-02-15T01:25:41;3.95;;;1.58;;
69150;SDS011;56257;52.196;13.870;2023-02-15T01:28:07;3.90;;;1.67;;
69150;SDS011;56257;52.196;13.870;2023-02-15T01:30:34;4.10;;;1.90;;
69150;SDS011;56257;52.196;13.870;2023-02-15T01:33:01;3.95;;;1.45;;
69150;SDS011;56257;52.196;13.870;2023-02-15T01:35:27;4.05;;;1.70;;
69150;SDS011;56257;52.196;13.870;2023-02-15T01:37:55;3.50;;;1.42;;
69150;SDS011;56257;52.196;13.870;2023-02-15T01:40:22;3.92;;;1.60;;
69150;SDS011;56257;52.196;13.870;2023-02-15T01:42:52;4.07;;;1.63;;
69150;SDS011;56257;52.196;13.870;2023-02-15T01:45:22;4.13;;;1.85;;
69150;SDS011;56257;52.196;13.870;2023-02-15T01:47:50;3.28;;;1.30;;
69150;SDS011;56257;52.196;13.870;2023-02-15T01:50:45;3.58;;;1.55;;
69150;SDS011;56257;52.196;13.870;2023-02-15T01:53:24;3.80;;;1.60;;
69150;SDS011;56257;52.196;13.870;2023-02-15T01:55:54;3.97;;;1.50;;
69150;SDS011;56257;52.196;13.870;2023-02-15T01:58:23;3.50;;;1.65;;
69150;SDS011;56257;52.196;13.870;2023-02-15T02:00:52;3.97;;;1.85;;
69150;SDS011;56257;52.196;13.870;2023-02-15T02:03:20;3.70;;;1.55;;
69150;SDS011;56257;52.196;13.870;2023-02-15T02:06:10;4.20;;;1.90;;
69150;SDS011;56257;52.196;13.870;2023-02-15T02:08:37;4.00;;;1.70;;
69150;SDS011;56257;52.196;13.870;2023-02-15T02:11:09;4.15;;;1.90;;
69150;SDS011;56257;52.196;13.870;2023-02-15T02:13:37;3.85;;;1.60;;
69150;SDS011;56257;52.196;13.870;2023-02-15T02:16:13;4.07;;;1.83;;
69150;SDS011;56257;52.196;13.870;2023-02-15T02:19:12;3.97;;;1.85;;
69150;SDS011;56257;52.196;13.870;2023-02-15T02:27:23;4.07;;;1.80;;
69150;SDS011;56257;52.196;13.870;2023-02-15T02:38:44;3.83;;;1.70;;
69150;SDS011;56257;52.196;13.870;2023-02-15T02:41:15;3.78;;;1.77;;
69150;SDS011;56257;52.196;13.870;2023-02-15T02:43:56;4.20;;;2.00;;
69150;SDS011;56257;52.196;13.870;2023-02-15T02:49:07;4.23;;;1.87;;
69150;SDS011;56257;52.196;13.870;2023-02-15T02:51:33;4.22;;;2.05;;
69150;SDS011;56257;52.196;13.870;2023-02-15T02:54:00;3.97;;;1.80;;
69150;SDS011;56257;52.196;13.870;2023-02-15T02:56:39;4.55;;;1.92;;
69150;SDS011;56257;52.196;13.870;2023-02-15T02:59:11;4.50;;;2.05;;
69150;SDS011;56257;52.196;13.870;2023-02-15T03:01:43;4.47;;;1.70;;
69150;SDS011;56257;52.196;13.870;2023-02-15T03:04:14;3.85;;;1.80;;
69150;SDS011;56257;52.196;13.870;2023-02-15T03:06:44;4.30;;;1.85;;
69150;SDS011;56257;52.196;13.870;2023-02-15T03:09:15;4.03;;;1.80;;
69150;SDS011;56257;52.196;13.870;2023-02-15T03:12:00;4.20;;;1.80;;
69150;SDS011;56257;52.196;13.870;2023-02-15T03:14:29;4.40;;;2.00;;
69150;SDS011;56257;52.196;13.870;2023-02-15T03:16:56;4.43;;;1.90;;
69150;SDS011;56257;52.196;13.870;2023-02-15T03:19:25;4.40;;;2.17;;
69150;SDS011;56257;52.196;13.870;2023-02-15T03:22:13;3.90;;;1.70;;
69150;SDS011;56257;52.196;13.870;2023-02-15T03:24:53;4.07;;;2.00;;
69150;SDS011;56257;52.196;13.870;2023-02-15T03:27:24;4.40;;;1.60;;
69150;SDS011;56257;52.196;13.870;2023-02-15T03:29:56;3.75;;;1.73;;
69150;SDS011;56257;52.196;13.870;2023-02-15T03:32:24;4.10;;;2.28;;
69150;SDS011;56257;52.196;13.870;2023-02-15T03:34:53;4.07;;;1.80;;
69150;SDS011;56257;52.196;13.870;2023-02-15T03:43:11;4.10;;;1.70;;
69150;SDS011;56257;52.196;13.870;2023-02-15T03:45:49;4.07;;;1.77;;
69150;SDS011;56257;52.196;13.870;2023-02-15T03:48:31;4.28;;;2.00;;
69150;SDS011;56257;52.196;13.870;2023-02-15T03:51:02;4.45;;;2.17;;
69150;SDS011;56257;52.196;13.870;2023-02-15T03:53:50;4.03;;;1.93;;
69150;SDS011;56257;52.196;13.870;2023-02-15T03:56:17;4.38;;;1.80;;
69150;SDS011;56257;52.196;13.870;2023-02-15T03:58:43;4.30;;;1.90;;
69150;SDS011;56257;52.196;13.870;2023-02-15T04:01:45;4.20;;;1.98;;
69150;SDS011;56257;52.196;13.870;2023-02-15T04:06:59;4.27;;;1.80;;
69150;SDS011;56257;52.196;13.870;2023-02-15T04:09:26;4.03;;;1.77;;
69150;SDS011;56257;52.196;13.870;2023-02-15T04:12:11;4.10;;;1.85;;
69150;SDS011;56257;52.196;13.870;2023-02-15T04:14:37;4.78;;;2.13;;
69150;SDS011;56257;52.196;13.870;2023-02-15T04:17:23;4.70;;;2.30;;
69150;SDS011;56257;52.196;13.870;2023-02-15T04:19:49;4.63;;;2.20;;
69150;SDS011;56257;52.196;13.870;2023-02-15T04:22:34;5.43;;;2.33;;
69150;SDS011;56257;52.196;13.870;2023-02-15T04:25:19;4.53;;;2.35;;
69150;SDS011;56257;52.196;13.870;2023-02-15T04:27:50;4.35;;;1.90;;
69150;SDS011;56257;52.196;13.870;2023-02-15T04:30:18;5.40;;;2.50;;
69150;SDS011;56257;52.196;13.870;2023-02-15T04:32:46;4.53;;;2.20;;
69150;SDS011;56257;52.196;13.870;2023-02-15T04:35:13;4.60;;;2.38;;
69150;SDS011;56257;52.196;13.870;2023-02-15T04:37:41;5.50;;;2.33;;
69150;SDS011;56257;52.196;13.870;2023-02-15T04:40:09;5.47;;;2.30;;
69150;SDS011;56257;52.196;13.870;2023-02-15T04:42:38;4.75;;;2.20;;
69150;SDS011;56257;52.196;13.870;2023-02-15T04:45:05;5.00;;;2.10;;
69150;SDS011;56257;52.196;13.870;2023-02-15T04:47:32;4.97;;;2.13;;
69150;SDS011;56257;52.196;13.870;2023-02-15T04:49:59;4.63;;;2.20;;
69150;SDS011;56257;52.196;13.870;2023-02-15T04:52:25;4.10;;;1.80;;
69150;SDS011;56257;52.196;13.870;2023-02-15T04:54:52;4.10;;;1.95;;
69150;SDS011;56257;52.196;13.870;2023-02-15T04:57:18;4.40;;;1.90;;
69150;SDS011;56257;52.196;13.870;2023-02-15T04:59:45;4.00;;;1.85;;
69150;SDS011;56257;52.196;13.870;2023-02-15T05:02:11;4.97;;;2.25;;
69150;SDS011;56257;52.196;13.870;2023-02-15T05:04:38;4.22;;;1.83;;
69150;SDS011;56257;52.196;13.870;2023-02-15T05:07:05;4.88;;;2.10;;
69150;SDS011;56257;52.196;13.870;2023-02-15T05:09:31;4.77;;;2.17;;
69150;SDS011;56257;52.196;13.870;2023-02-15T05:11:58;4.95;;;2.30;;
69150;SDS011;56257;52.196;13.870;2023-02-15T05:14:24;4.70;;;1.90;;
69150;SDS011;56257;52.196;13.870;2023-02-15T05:16:51;4.15;;;1.75;;
69150;SDS011;56257;52.196;13.870;2023-02-15T05:19:20;4.35;;;2.00;;
69150;SDS011;56257;52.196;13.870;2023-02-15T05:21:46;4.20;;;2.03;;
69150;SDS011;56257;52.196;13.870;2023-02-15T05:24:13;4.55;;;1.98;;
69150;SDS011;56257;52.196;13.870;2023-02-15T05:26:58;4.30;;;1.77;;
69150;SDS011;56257;52.196;13.870;2023-02-15T05:29:43;4.18;;;1.90;;
69150;SDS011;56257;52.196;13.870;2023-02-15T05:32:11;4.97;;;2.05;;
69150;SDS011;56257;52.196;13.870;2023-02-15T05:34:39;4.87;;;2.30;;
69150;SDS011;56257;52.196;13.870;2023-02-15T05:37:05;4.28;;;2.00;;
69150;SDS011;56257;52.196;13.870;2023-02-15T05:39:33;4.38;;;2.08;;
69150;SDS011;56257;52.196;13.870;2023-02-15T05:42:00;5.18;;;2.47;;
69150;SDS011;56257;52.196;13.870;2023-02-15T05:44:27;5.53;;;2.67;;
69150;SDS011;56257;52.196;13.870;2023-02-15T05:46:53;5.77;;;2.60;;
69150;SDS011;56257;52.196;13.870;2023-02-15T05:49:20;5.05;;;2.55;;
69150;SDS011;56257;52.196;13.870;2023-02-15T05:51:46;5.38;;;2.67;;
69150;SDS011;56257;52.196;13.870;2023-02-15T05:54:13;4.72;;;2.25;;
69150;SDS011;56257;52.196;13.870;2023-02-15T05:56:39;4.32;;;2.20;;
69150;SDS011;56257;52.196;13.870;2023-02-15T05:59:06;5.70;;;2.57;;
69150;SDS011;56257;52.196;13.870;2023-02-15T06:01:33;5.25;;;2.50;;
69150;SDS011;56257;52.196;13.870;2023-02-15T06:03:59;5.43;;;2.95;;
69150;SDS011;56257;52.196;13.870;2023-02-15T06:06:26;5.15;;;2.42;;
69150;SDS011;56257;52.196;13.870;2023-02-15T06:08:52;5.85;;;2.70;;
69150;SDS011;56257;52.196;13.870;2023-02-15T06:11:19;4.80;;;2.10;;
69150;SDS011;56257;52.196;13.870;2023-02-15T06:13:45;5.18;;;2.35;;
69150;SDS011;56257;52.196;13.870;2023-02-15T06:16:12;5.50;;;2.40;;
69150;SDS011;56257;52.196;13.870;2023-02-15T06:18:39;4.93;;;2.22;;
69150;SDS011;56257;52.196;13.870;2023-02-15T06:21:05;4.82;;;2.50;;
69150;SDS011;56257;52.196;13.870;2023-02-15T06:23:32;5.00;;;2.40;;
69150;SDS011;56257;52.196;13.870;2023-02-15T06:25:59;4.68;;;2.08;;
69150;SDS011;56257;52.196;13.870;2023-02-15T06:28:26;5.78;;;3.22;;
69150;SDS011;56257;52.196;13.870;2023-02-15T06:30:52;5.53;;;2.30;;
69150;SDS011;56257;52.196;13.870;2023-02-15T06:33:19;5.95;;;2.63;;
69150;SDS011;56257;52.196;13.870;2023-02-15T06:35:46;5.20;;;2.10;;
69150;SDS011;56257;52.196;13.870;2023-02-15T06:38:12;4.85;;;2.53;;
69150;SDS011;56257;52.196;13.870;2023-02-15T06:40:39;4.68;;;2.10;;
69150;SDS011;56257;52.196;13.870;2023-02-15T06:43:06;4.78;;;2.22;;
69150;SDS011;56257;52.196;13.870;2023-02-15T06:45:32;4.57;;;2.35;;
69150;SDS011;56257;52.196;13.870;2023-02-15T06:47:59;4.93;;;2.20;;
69150;SDS011;56257;52.196;13.870;2023-02-15T06:50:25;4.70;;;2.10;;
69150;SDS011;56257;52.196;13.870;2023-02-15T06:52:56;4.72;;;2.30;;
69150;SDS011;56257;52.196;13.870;2023-02-15T06:55:23;4.68;;;2.33;;
69150;SDS011;56257;52.196;13.870;2023-02-15T06:57:50;4.63;;;2.47;;
69150;SDS011;56257;52.196;13.870;2023-02-15T07:00:17;5.10;;;2.30;;
69150;SDS011;56257;52.196;13.870;2023-02-15T07:02:44;5.10;;;2.50;;
69150;SDS011;56257;52.196;13.870;2023-02-15T07:05:11;5.45;;;2.63;;
69150;SDS011;56257;52.196;13.870;2023-02-15T07:07:38;5.13;;;2.33;;
69150;SDS011;56257;52.196;13.870;2023-02-15T07:10:04;6.65;;;3.13;;
69150;SDS011;56257;52.196;13.870;2023-02-15T07:12:32;5.07;;;2.37;;
69150;SDS011;56257;52.196;13.870;2023-02-15T07:15:11;5.82;;;2.70;;
69150;SDS011;56257;52.196;13.870;2023-02-15T07:17:39;5.88;;;3.00;;
69150;SDS011;56257;52.196;13.870;2023-02-15T07:20:08;4.97;;;2.42;;
69150;SDS011;56257;52.196;13.870;2023-02-15T07:22:40;4.63;;;2.38;;
69150;SDS011;56257;52.196;13.870;2023-02-15T07:25:07;4.60;;;2.30;;
69150;SDS011;56257;52.196;13.870;2023-02-15T07:27:35;5.88;;;2.22;;
69150;SDS011;56257;52.196;13.870;2023-02-15T07:30:02;5.00;;;2.38;;
69150;SDS011;56257;52.196;13.870;2023-02-15T07:32:30;5.40;;;2.53;;
69150;SDS011;56257;52.196;13.870;2023-02-15T07:34:58;5.50;;;2.80;;
69150;SDS011;56257;52.196;13.870;2023-02-15T07:37:25;5.50;;;2.50;;
69150;SDS011;56257;52.196;13.870;2023-02-15T07:39:52;5.82;;;2.70;;
69150;SDS011;56257;52.196;13.870;2023-02-15T07:42:19;5.70;;;3.05;;
69150;SDS011;56257;52.196;13.870;2023-02-15T07:44:47;4.93;;;2.10;;
69150;SDS011;56257;52.196;13.870;2023-02-15T07:47:13;5.25;;;2.50;;
69150;SDS011;56257;52.196;13.870;2023-02-15T07:49:40;5.70;;;2.30;;
69150;SDS011;56257;52.196;13.870;2023-02-15T07:52:07;4.95;;;2.38;;
69150;SDS011;56257;52.196;13.870;2023-02-15T07:54:33;4.93;;;2.40;;
69150;SDS011;56257;52.196;13.870;2023-02-15T07:57:00;4.65;;;2.50;;
69150;SDS011;56257;52.196;13.870;2023-02-15T07:59:27;4.85;;;2.38;;
69150;SDS011;56257;52.196;13.870;2023-02-15T08:01:53;5.20;;;2.20;;
69150;SDS011;56257;52.196;13.870;2023-02-15T08:04:22;4.35;;;2.13;;
69150;SDS011;56257;52.196;13.870;2023-02-15T08:06:51;5.22;;;2.42;;
69150;SDS011;56257;52.196;13.870;2023-02-15T08:09:19;4.97;;;1.95;;
69150;SDS011;56257;52.196;13.870;2023-02-15T08:11:46;4.80;;;2.17;;
69150;SDS011;56257;52.196;13.870;2023-02-15T08:14:14;5.10;;;2.50;;
69150;SDS011;56257;52.196;13.870;2023-02-15T08:21:41;5.35;;;2.63;;
69150;SDS011;56257;52.196;13.870;2023-02-15T08:24:09;6.05;;;2.83;;
69150;SDS011;56257;52.196;13.870;2023-02-15T08:26:37;5.40;;;2.70;;
69150;SDS011;56257;52.196;13.870;2023-02-15T08:29:07;5.95;;;3.10;;
69150;SDS011;56257;52.196;13.870;2023-02-15T08:31:34;6.35;;;3.20;;
69150;SDS011;56257;52.196;13.870;2023-02-15T08:34:01;6.10;;;3.33;;
69150;SDS011;56257;52.196;13.870;2023-02-15T08:36:29;5.68;;;3.15;;
69150;SDS011;56257;52.196;13.870;2023-02-15T08:38:58;6.13;;;2.87;;
69150;SDS011;56257;52.196;13.870;2023-02-15T08:41:29;6.00;;;2.72;;
69150;SDS011;56257;52.196;13.870;2023-02-15T08:44:00;5.75;;;3.00;;
69150;SDS011;56257;52.196;13.870;2023-02-15T08:46:29;5.35;;;2.85;;
69150;SDS011;56257;52.196;13.870;2023-02-15T08:48:57;5.90;;;3.00;;
69150;SDS011;56257;52.196;13.870;2023-02-15T08:51:25;6.33;;;2.90;;
69150;SDS011;56257;52.196;13.870;2023-02-15T08:53:54;5.80;;;2.30;;
69150;SDS011;56257;52.196;13.870;2023-02-15T08:56:26;5.60;;;2.80;;
69150;SDS011;56257;52.196;13.870;2023-02-15T08:58:54;5.50;;;2.85;;
69150;SDS011;56257;52.196;13.870;2023-02-15T09:01:23;5.15;;;2.38;;
69150;SDS011;56257;52.196;13.870;2023-02-15T09:03:55;5.80;;;2.70;;
69150;SDS011;56257;52.196;13.870;2023-02-15T09:06:23;5.25;;;2.40;;
69150;SDS011;56257;52.196;13.870;2023-02-15T09:08:50;6.85;;;2.67;;
69150;SDS011;56257;52.196;13.870;2023-02-15T09:11:18;5.90;;;2.97;;
69150;SDS011;56257;52.196;13.870;2023-02-15T09:13:51;5.30;;;2.70;;
69150;SDS011;56257;52.196;13.870;2023-02-15T09:16:26;5.57;;;2.70;;
69150;SDS011;56257;52.196;13.870;2023-02-15T09:18:54;5.50;;;2.63;;
69150;SDS011;56257;52.196;13.870;2023-02-15T09:21:24;5.47;;;2.42;;
69150;SDS011;56257;52.196;13.870;2023-02-15T09:23:52;5.38;;;2.72;;
69150;SDS011;56257;52.196;13.870;2023-02-15T09:26:23;5.43;;;2.90;;
69150;SDS011;56257;52.196;13.870;2023-02-15T09:28:54;5.30;;;2.60;;
69150;SDS011;56257;52.196;13.870;2023-02-15T09:31:23;5.78;;;2.92;;
69150;SDS011;56257;52.196;13.870;2023-02-15T09:33:51;5.13;;;2.70;;
69150;SDS011;56257;52.196;13.870;2023-02-15T09:38:56;5.00;;;2.60;;
69150;SDS011;56257;52.196;13.870;2023-02-15T10:00:46;5.20;;;2.75;;
69150;SDS011;56257;52.196;13.870;2023-02-15T10:06:23;6.03;;;3.10;;
69150;SDS011;56257;52.196;13.870;2023-02-15T10:11:52;5.97;;;2.88;;
69150;SDS011;56257;52.196;13.870;2023-02-15T10:17:31;5.55;;;2.58;;
69150;SDS011;56257;52.196;13.870;2023-02-15T10:26:22;6.07;;;2.95;;
69150;SDS011;56257;52.196;13.870;2023-02-15T10:29:12;6.15;;;2.85;;
69150;SDS011;56257;52.196;13.870;2023-02-15T10:32:10;5.82;;;2.80;;
69150;SDS011;56257;52.196;13.870;2023-02-15T10:37:39;4.90;;;2.40;;
69150;SDS011;56257;52.196;13.870;2023-02-15T10:51:00;5.03;;;2.70;;
69150;SDS011;56257;52.196;13.870;2023-02-15T10:56:14;5.53;;;3.08;;
69150;SDS011;56257;52.196;13.870;2023-02-15T11:06:55;5.05;;;2.60;;
69150;SDS011;56257;52.196;13.870;2023-02-15T11:09:27;5.38;;;2.70;;
69150;SDS011;56257;52.196;13.870;2023-02-15T11:11:59;5.50;;;2.75;;
69150;SDS011;56257;52.196;13.870;2023-02-15T11:17:10;6.43;;;2.80;;
69150;SDS011;56257;52.196;13.870;2023-02-15T11:19:56;6.63;;;2.70;;
69150;SDS011;56257;52.196;13.870;2023-02-15T11:22:33;5.68;;;2.75;;
69150;SDS011;56257;52.196;13.870;2023-02-15T11:25:00;6.10;;;2.90;;
69150;SDS011;56257;52.196;13.870;2023-02-15T11:27:29;5.40;;;2.90;;
69150;SDS011;56257;52.196;13.870;2023-02-15T11:30:04;6.13;;;2.73;;
69150;SDS011;56257;52.196;13.870;2023-02-15T11:32:38;5.75;;;2.92;;
69150;SDS011;56257;52.196;13.870;2023-02-15T11:37:49;6.35;;;2.95;;
69150;SDS011;56257;52.196;13.870;2023-02-15T11:40:25;5.38;;;2.65;;
69150;SDS011;56257;52.196;13.870;2023-02-15T11:42:58;5.63;;;2.50;;
69150;SDS011;56257;52.196;13.870;2023-02-15T11:45:32;4.90;;;2.78;;
69150;SDS011;56257;52.196;13.870;2023-02-15T11:48:00;5.63;;;2.80;;
69150;SDS011;56257;52.196;13.870;2023-02-15T11:50:31;5.90;;;2.78;;
69150;SDS011;56257;52.196;13.870;2023-02-15T11:53:06;7.03;;;3.78;;
69150;SDS011;56257;52.196;13.870;2023-02-15T11:55:36;8.70;;;4.60;;
69150;SDS011;56257;52.196;13.870;2023-02-15T12:00:45;7.00;;;3.90;;
69150;SDS011;56257;52.196;13.870;2023-02-15T12:05:49;7.70;;;3.97;;
69150;SDS011;56257;52.196;13.870;2023-02-15T12:08:33;7.07;;;3.60;;
69150;SDS011;56257;52.196;13.870;2023-02-15T12:11:47;8.30;;;3.55;;
69150;SDS011;56257;52.196;13.870;2023-02-15T12:14:12;6.13;;;3.33;;
69150;SDS011;56257;52.196;13.870;2023-02-15T12:16:43;6.57;;;3.60;;
69150;SDS011;56257;52.196;13.870;2023-02-15T12:19:27;6.63;;;3.08;;
69150;SDS011;56257;52.196;13.870;2023-02-15T12:22:06;6.90;;;3.20;;
69150;SDS011;56257;52.196;13.870;2023-02-15T12:24:54;6.10;;;3.38;;
69150;SDS011;56257;52.196;13.870;2023-02-15T12:27:33;6.53;;;3.60;;
69150;SDS011;56257;52.196;13.870;2023-02-15T12:30:04;7.07;;;3.45;;
69150;SDS011;56257;52.196;13.870;2023-02-15T12:32:34;5.85;;;3.15;;
69150;SDS011;56257;52.196;13.870;2023-02-15T12:35:29;6.27;;;3.50;;
69150;SDS011;56257;52.196;13.870;2023-02-15T12:40:56;5.80;;;3.05;;
69150;SDS011;56257;52.196;13.870;2023-02-15T12:43:37;5.97;;;3.05;;
69150;SDS011;56257;52.196;13.870;2023-02-15T12:46:14;5.60;;;3.10;;
69150;SDS011;56257;52.196;13.870;2023-02-15T12:49:05;6.33;;;3.30;;
69150;SDS011;56257;52.196;13.870;2023-02-15T12:51:47;5.47;;;2.67;;
69150;SDS011;56257;52.196;13.870;2023-02-15T12:54:16;6.43;;;3.17;;
69150;SDS011;56257;52.196;13.870;2023-02-15T12:56:52;5.68;;;2.90;;
69150;SDS011;56257;52.196;13.870;2023-02-15T12:59:19;6.07;;;3.17;;
69150;SDS011;56257;52.196;13.870;2023-02-15T13:01:48;5.33;;;2.60;;
69150;SDS011;56257;52.196;13.870;2023-02-15T13:04:27;5.18;;;2.47;;
69150;SDS011;56257;52.196;13.870;2023-02-15T13:06:55;5.85;;;2.90;;
69150;SDS011;56257;52.196;13.870;2023-02-15T13:12:11;6.28;;;3.10;;
69150;SDS011;56257;52.196;13.870;2023-02-15T13:14:45;5.90;;;3.03;;
69150;SDS011;56257;52.196;13.870;2023-02-15T13:17:14;6.30;;;2.80;;
69150;SDS011;56257;52.196;13.870;2023-02-15T13:19:44;6.22;;;3.00;;
69150;SDS011;56257;52.196;13.870;2023-02-15T13:22:14;5.43;;;2.80;;
69150;SDS011;56257;52.196;13.870;2023-02-15T13:24:45;4.95;;;2.50;;
69150;SDS011;56257;52.196;13.870;2023-02-15T13:27:15;5.47;;;2.80;;
69150;SDS011;56257;52.196;13.870;2023-02-15T13:29:46;5.43;;;2.60;;
69150;SDS011;56257;52.196;13.870;2023-02-15T13:32:30;6.72;;;2.95;;
69150;SDS011;56257;52.196;13.870;2023-02-15T13:35:00;5.97;;;3.08;;
69150;SDS011;56257;52.196;13.870;2023-02-15T13:37:51;4.80;;;2.42;;
69150;SDS011;56257;52.196;13.870;2023-02-15T13:40:41;5.97;;;2.90;;
69150;SDS011;56257;52.196;13.870;2023-02-15T13:43:16;5.45;;;2.78;;
69150;SDS011;56257;52.196;13.870;2023-02-15T13:46:07;5.72;;;2.83;;
69150;SDS011;56257;52.196;13.870;2023-02-15T13:49:03;5.78;;;2.97;;
69150;SDS011;56257;52.196;13.870;2023-02-15T13:51:56;5.32;;;2.47;;
69150;SDS011;56257;52.196;13.870;2023-02-15T13:54:36;5.67;;;2.57;;
69150;SDS011;56257;52.196;13.870;2023-02-15T13:59:54;5.75;;;2.92;;
69150;SDS011;56257;52.196;13.870;2023-02-15T14:02:50;5.20;;;2.50;;
69150;SDS011;56257;52.196;13.870;2023-02-15T14:16:30;5.35;;;2.60;;
69150;SDS011;56257;52.196;13.870;2023-02-15T14:21:59;4.67;;;2.43;;
69150;SDS011;56257;52.196;13.870;2023-02-15T14:24:30;4.85;;;2.50;;
69150;SDS011;56257;52.196;13.870;2023-02-15T14:30:29;4.80;;;2.42;;
69150;SDS011;56257;52.196;13.870;2023-02-15T14:33:25;4.60;;;2.10;;
69150;SDS011;56257;52.196;13.870;2023-02-15T14:36:10;5.30;;;2.57;;
69150;SDS011;56257;52.196;13.870;2023-02-15T14:38:45;5.45;;;2.40;;
69150;SDS011;56257;52.196;13.870;2023-02-15T14:41:24;5.25;;;2.60;;
69150;SDS011;56257;52.196;13.870;2023-02-15T14:44:15;5.88;;;2.53;;
69150;SDS011;56257;52.196;13.870;2023-02-15T14:47:08;5.15;;;2.42;;
69150;SDS011;56257;52.196;13.870;2023-02-15T14:49:37;4.43;;;2.30;;
69150;SDS011;56257;52.196;13.870;2023-02-15T14:52:09;4.90;;;2.40;;
69150;SDS011;56257;52.196;13.870;2023-02-15T15:02:19;4.53;;;2.43;;
69150;SDS011;56257;52.196;13.870;2023-02-15T15:07:38;4.78;;;2.55;;
69150;SDS011;56257;52.196;13.870;2023-02-15T15:12:45;4.35;;;2.15;;
69150;SDS011;56257;52.196;13.870;2023-02-15T15:15:38;4.60;;;2.10;;
69150;SDS011;56257;52.196;13.870;2023-02-15T15:18:05;4.93;;;2.30;;
69150;SDS011;56257;52.196;13.870;2023-02-15T15:20:49;4.32;;;2.20;;
69150;SDS011;56257;52.196;13.870;2023-02-15T15:25:51;4.03;;;2.05;;
69150;SDS011;56257;52.196;13.870;2023-02-15T15:42:00;4.77;;;2.37;;
69150;SDS011;56257;52.196;13.870;2023-02-15T15:50:32;4.40;;;2.30;;
69150;SDS011;56257;52.196;13.870;2023-02-15T15:53:00;4.88;;;2.33;;
69150;SDS011;56257;52.196;13.870;2023-02-15T15:55:29;4.27;;;2.00;;
69150;SDS011;56257;52.196;13.870;2023-02-15T15:57:58;4.82;;;2.17;;
69150;SDS011;56257;52.196;13.870;2023-02-15T16:03:29;4.78;;;2.17;;
69150;SDS011;56257;52.196;13.870;2023-02-15T16:05:56;4.65;;;2.20;;
69150;SDS011;56257;52.196;13.870;2023-02-15T16:08:31;4.07;;;1.80;;
69150;SDS011;56257;52.196;13.870;2023-02-15T16:11:00;4.28;;;2.10;;
69150;SDS011;56257;52.196;13.870;2023-02-15T16:13:34;4.72;;;2.00;;
69150;SDS011;56257;52.196;13.870;2023-02-15T16:16:01;4.28;;;1.90;;
69150;SDS011;56257;52.196;13.870;2023-02-15T16:18:28;4.72;;;2.35;;
69150;SDS011;56257;52.196;13.870;2023-02-15T16:20:55;4.30;;;2.13;;
69150;SDS011;56257;52.196;13.870;2023-02-15T16:26:05;4.20;;;1.98;;
69150;SDS011;56257;52.196;13.870;2023-02-15T16:28:39;4.15;;;2.00;;
69150;SDS011;56257;52.196;13.870;2023-02-15T16:31:13;4.00;;;1.95;;
69150;SDS011;56257;52.196;13.870;2023-02-15T16:33:41;4.07;;;1.97;;
69150;SDS011;56257;52.196;13.870;2023-02-15T16:36:13;4.50;;;2.20;;
69150;SDS011;56257;52.196;13.870;2023-02-15T16:41:28;3.97;;;1.80;;
69150;SDS011;56257;52.196;13.870;2023-02-15T16:43:56;5.13;;;2.25;;
69150;SDS011;56257;52.196;13.870;2023-02-15T16:46:28;3.70;;;1.50;;
69150;SDS011;56257;52.196;13.870;2023-02-15T16:48:57;4.25;;;1.90;;
69150;SDS011;56257;52.196;13.870;2023-02-15T16:51:27;4.10;;;1.63;;
69150;SDS011;56257;52.196;13.870;2023-02-15T16:53:56;3.92;;;1.55;;
69150;SDS011;56257;52.196;13.870;2023-02-15T16:56:25;4.25;;;2.10;;
69150;SDS011;56257;52.196;13.870;2023-02-15T16:58:54;4.17;;;1.80;;
69150;SDS011;56257;52.196;13.870;2023-02-15T17:01:22;4.05;;;1.67;;
69150;SDS011;56257;52.196;13.870;2023-02-15T17:03:51;4.18;;;1.88;;
69150;SDS011;56257;52.196;13.870;2023-02-15T17:06:37;4.38;;;2.20;;
69150;SDS011;56257;52.196;13.870;2023-02-15T17:09:05;4.63;;;2.08;;
69150;SDS011;56257;52.196;13.870;2023-02-15T17:11:41;4.43;;;2.00;;
69150;SDS011;56257;52.196;13.870;2023-02-15T17:16:36;4.70;;;2.20;;
69150;SDS011;56257;52.196;13.870;2023-02-15T17:19:09;4.00;;;1.65;;
69150;SDS011;56257;52.196;13.870;2023-02-15T17:21:41;4.05;;;1.73;;
69150;SDS011;56257;52.196;13.870;2023-02-15T17:24:39;4.17;;;1.87;;
69150;SDS011;56257;52.196;13.870;2023-02-15T17:27:12;4.22;;;1.70;;
69150;SDS011;56257;52.196;13.870;2023-02-15T17:29:40;3.47;;;1.50;;
69150;SDS011;56257;52.196;13.870;2023-02-15T17:32:14;3.92;;;1.73;;
69150;SDS011;56257;52.196;13.870;2023-02-15T17:40:37;3.85;;;1.58;;
69150;SDS011;56257;52.196;13.870;2023-02-15T17:43:01;4.35;;;2.05;;
69150;SDS011;56257;52.196;13.870;2023-02-15T17:45:31;4.50;;;2.00;;
69150;SDS011;56257;52.196;13.870;2023-02-15T17:48:03;4.20;;;2.00;;
69150;SDS011;56257;52.196;13.870;2023-02-15T17:50:31;3.87;;;1.60;;
69150;SDS011;56257;52.196;13.870;2023-02-15T17:52:58;4.00;;;1.92;;
69150;SDS011;56257;52.196;13.870;2023-02-15T17:55:26;4.05;;;1.75;;
69150;SDS011;56257;52.196;13.870;2023-02-15T17:58:15;3.97;;;1.73;;
69150;SDS011;56257;52.196;13.870;2023-02-15T18:00:48;4.30;;;2.00;;